Ghardaia, Algeria
Current Conditions -  °F | °C
As of 11:00 AM on Thursday 29 Jan 2015 (Local Time) from DAUG Reporting Station
Clear Clear  
Wind Chill: 54°   Ceiling: Unl
Heat Index: 54°   Visibility: 6mi
Dew Point: 34°   Wind: 9mph
Humidity: 47%   Direction: 310°NW
Pressure: 30.15"   Gusts: NA
Location:  32.49°N, 3.68°E
Report Text: DAUG 291000Z 31008KT CAVOK 12/01 Q1021
Loading
Personal Weather Stations






























Interactive Weather Map New forecast layout! Learn more

10-Day Weather Forecast

Advertisements
Track Severe Weather on mobile